Terminal Aerodrome Forecast
Issued by NWS

Current Version | Previous Version | Text Only | Print | Product List | Glossary Off
Versions: 1 2 3 4 5 6 7 8 9 10 11 12 13 14 15 16 17 18 19 20 21 22 23

266
FTUS41 KILN 161535 AAD
TAFLUK
TAF AMD
KLUK 161535Z 1616/1712 30012G22KT 6SM BR FEW010 BKN018 OVC045
     FM161700 33012G20KT P6SM BKN025
     FM162300 36005KT P6SM SCT025
     FM170600 VRB03KT P6SM SCT025=

USA.gov is the U.S. government's official web portal to all federal, state and local government web resources and services.